SKU011 SUMU-SLVR
Flight info
| Callsign | SKU011 |
|---|---|
| Flight time | N/A |
| Altitude | 36000 |
| Route | MONSA UP526 GEMSU UZ120 SIS UM784 BOLET UL404 VIR |
| Aircraft | A320/M-SDE3FGHIRWY/LB1 |
Departure
| Time | N/A |
|---|---|
| Airport | Carrasco General Cesáreo L. Berisso International Airport (SUMU) |
Arrival
| Time | 2026-05-06 16:41 |
|---|---|
| Airport | Viru Viru International Airport (SLVR) |
| Time | Latitude | Longitude | Altitude | Speed | Heading |
|---|---|---|---|---|---|
| 2026-05-06 15:30 | -25.33216 | -60.51625 | 36013 ft | 453 kts | 328° |
| 2026-05-06 15:31 | -25.30518 | -60.53421 | 36012 ft | 453 kts | 328° |
| 2026-05-06 15:31 | -25.25129 | -60.57010 | 36004 ft | 452 kts | 328° |
| 2026-05-06 15:32 | -25.17030 | -60.62398 | 36007 ft | 453 kts | 329° |
| 2026-05-06 15:32 | -25.11633 | -60.65975 | 36007 ft | 453 kts | 329° |
| 2026-05-06 15:33 | -25.06234 | -60.69555 | 36005 ft | 453 kts | 329° |
| 2026-05-06 15:33 | -25.00853 | -60.73112 | 36006 ft | 453 kts | 329° |
| 2026-05-06 15:34 | -24.95449 | -60.76689 | 36008 ft | 453 kts | 329° |
| 2026-05-06 15:34 | -24.90041 | -60.80264 | 36010 ft | 453 kts | 328° |
| 2026-05-06 15:35 | -24.84644 | -60.83877 | 36012 ft | 454 kts | 328° |
| 2026-05-06 15:35 | -24.79259 | -60.87494 | 36014 ft | 454 kts | 328° |
| 2026-05-06 15:36 | -24.73864 | -60.91089 | 36014 ft | 453 kts | 328° |
| 2026-05-06 15:36 | -24.68457 | -60.94677 | 36013 ft | 453 kts | 328° |
| 2026-05-06 15:37 | -24.63057 | -60.98258 | 36014 ft | 454 kts | 328° |
| 2026-05-06 15:37 | -24.57656 | -61.01848 | 36015 ft | 454 kts | 328° |
| 2026-05-06 15:38 | -24.52247 | -61.05442 | 36017 ft | 454 kts | 328° |
| 2026-05-06 15:38 | -24.47766 | -61.08425 | 36018 ft | 454 kts | 328° |
| 2026-05-06 15:39 | -24.41449 | -61.12609 | 36015 ft | 453 kts | 328° |
| 2026-05-06 15:39 | -24.36074 | -61.16160 | 36015 ft | 453 kts | 328° |
| 2026-05-06 15:40 | -24.30671 | -61.19734 | 36015 ft | 453 kts | 328° |
| 2026-05-06 15:40 | -24.25274 | -61.23306 | 36012 ft | 453 kts | 328° |
| 2026-05-06 15:41 | -24.19874 | -61.26867 | 36009 ft | 453 kts | 329° |
| 2026-05-06 15:41 | -24.14473 | -61.30419 | 36007 ft | 453 kts | 329° |
| 2026-05-06 15:42 | -24.09057 | -61.33969 | 36007 ft | 453 kts | 329° |
| 2026-05-06 15:42 | -24.03632 | -61.37481 | 36007 ft | 453 kts | 329° |
| 2026-05-06 15:43 | -23.98204 | -61.40995 | 36007 ft | 453 kts | 329° |
| 2026-05-06 15:43 | -23.92772 | -61.44514 | 36009 ft | 453 kts | 329° |
| 2026-05-06 15:44 | -23.87341 | -61.48018 | 36009 ft | 453 kts | 329° |
| 2026-05-06 15:44 | -23.81941 | -61.51508 | 36009 ft | 453 kts | 329° |
| 2026-05-06 15:45 | -23.76511 | -61.55024 | 36010 ft | 454 kts | 329° |
| 2026-05-06 15:45 | -23.71073 | -61.58531 | 36013 ft | 454 kts | 329° |
| 2026-05-06 15:46 | -23.65630 | -61.62043 | 36015 ft | 454 kts | 329° |
| 2026-05-06 15:46 | -23.60191 | -61.65543 | 36017 ft | 454 kts | 329° |
| 2026-05-06 15:47 | -23.54749 | -61.69037 | 36018 ft | 454 kts | 329° |
| 2026-05-06 15:47 | -23.49309 | -61.72531 | 36017 ft | 454 kts | 329° |
| 2026-05-06 15:48 | -23.43867 | -61.76030 | 36014 ft | 454 kts | 329° |
| 2026-05-06 15:48 | -23.38428 | -61.79517 | 36014 ft | 454 kts | 329° |
| 2026-05-06 15:49 | -23.32985 | -61.82995 | 36014 ft | 454 kts | 329° |
| 2026-05-06 15:49 | -23.27540 | -61.86476 | 36015 ft | 454 kts | 329° |
| 2026-05-06 15:50 | -23.22104 | -61.89958 | 36013 ft | 454 kts | 329° |
| 2026-05-06 15:50 | -23.16696 | -61.93419 | 36012 ft | 454 kts | 329° |
| 2026-05-06 15:51 | -23.11258 | -61.96902 | 36014 ft | 454 kts | 329° |
| 2026-05-06 15:51 | -23.05805 | -62.00370 | 36015 ft | 454 kts | 329° |
| 2026-05-06 15:52 | -23.00356 | -62.03835 | 36015 ft | 454 kts | 329° |
| 2026-05-06 15:52 | -22.94911 | -62.07299 | 36013 ft | 454 kts | 329° |
| 2026-05-06 15:53 | -22.89464 | -62.10775 | 36012 ft | 454 kts | 329° |
| 2026-05-06 15:53 | -22.84018 | -62.14235 | 36013 ft | 454 kts | 329° |
| 2026-05-06 15:54 | -22.78564 | -62.17689 | 36015 ft | 454 kts | 329° |
| 2026-05-06 15:54 | -22.73109 | -62.21146 | 36016 ft | 454 kts | 329° |
| 2026-05-06 15:55 | -22.67687 | -62.24590 | 36017 ft | 454 kts | 329° |
| 2026-05-06 15:55 | -22.62228 | -62.28046 | 36018 ft | 454 kts | 329° |
| 2026-05-06 15:56 | -22.56757 | -62.31493 | 36018 ft | 454 kts | 329° |
| 2026-05-06 15:56 | -22.51291 | -62.34944 | 36017 ft | 454 kts | 329° |
| 2026-05-06 15:57 | -22.45845 | -62.38384 | 36015 ft | 454 kts | 329° |
| 2026-05-06 15:57 | -22.40383 | -62.41827 | 36013 ft | 454 kts | 330° |
| 2026-05-06 15:58 | -22.34655 | -62.44605 | 36007 ft | 453 kts | 348° |
| 2026-05-06 15:58 | -22.28506 | -62.45868 | 36005 ft | 453 kts | 349° |
| 2026-05-06 15:59 | -22.22306 | -62.47109 | 36001 ft | 454 kts | 349° |
| 2026-05-06 15:59 | -22.16088 | -62.48339 | 36001 ft | 454 kts | 349° |
| 2026-05-06 16:00 | -22.09874 | -62.49564 | 35997 ft | 454 kts | 349° |
| 2026-05-06 16:00 | -22.03656 | -62.50798 | 36002 ft | 454 kts | 349° |
| 2026-05-06 16:01 | -21.97431 | -62.52042 | 36002 ft | 454 kts | 349° |
| 2026-05-06 16:01 | -21.91212 | -62.53269 | 36003 ft | 455 kts | 349° |
| 2026-05-06 16:02 | -21.84992 | -62.54492 | 36004 ft | 455 kts | 349° |
| 2026-05-06 16:02 | -21.78762 | -62.55722 | 36006 ft | 455 kts | 349° |
| 2026-05-06 16:03 | -21.72541 | -62.56952 | 36006 ft | 455 kts | 349° |
| 2026-05-06 16:03 | -21.66317 | -62.58180 | 36004 ft | 455 kts | 349° |
| 2026-05-06 16:04 | -21.60096 | -62.59400 | 36006 ft | 455 kts | 349° |
| 2026-05-06 16:04 | -21.53877 | -62.60619 | 36005 ft | 454 kts | 349° |
| 2026-05-06 16:05 | -21.47692 | -62.61842 | 36003 ft | 454 kts | 349° |
| 2026-05-06 16:05 | -21.41478 | -62.63079 | 36002 ft | 454 kts | 349° |
| 2026-05-06 16:06 | -21.35251 | -62.64302 | 36002 ft | 454 kts | 349° |
| 2026-05-06 16:06 | -21.29030 | -62.65509 | 36001 ft | 455 kts | 349° |
| 2026-05-06 16:07 | -21.22809 | -62.66730 | 36002 ft | 455 kts | 349° |
| 2026-05-06 16:07 | -21.16574 | -62.67955 | 36003 ft | 455 kts | 349° |
| 2026-05-06 16:08 | -21.10348 | -62.69171 | 36003 ft | 455 kts | 349° |
| 2026-05-06 16:08 | -21.04124 | -62.70390 | 36001 ft | 455 kts | 349° |
| 2026-05-06 16:09 | -20.97895 | -62.71603 | 36002 ft | 455 kts | 349° |
| 2026-05-06 16:09 | -20.91651 | -62.72817 | 36002 ft | 455 kts | 349° |
| 2026-05-06 16:10 | -20.85421 | -62.74035 | 36001 ft | 455 kts | 349° |
| 2026-05-06 16:10 | -20.79194 | -62.75259 | 36003 ft | 455 kts | 349° |
| 2026-05-06 16:11 | -20.72954 | -62.76474 | 36002 ft | 455 kts | 349° |
| 2026-05-06 16:11 | -20.66719 | -62.77676 | 36003 ft | 456 kts | 349° |
| 2026-05-06 16:12 | -20.60513 | -62.78882 | 36001 ft | 456 kts | 349° |
| 2026-05-06 16:12 | -20.54271 | -62.80098 | 36002 ft | 456 kts | 349° |
| 2026-05-06 16:13 | -20.48020 | -62.81307 | 36005 ft | 457 kts | 349° |
| 2026-05-06 16:13 | -20.41766 | -62.82511 | 36013 ft | 457 kts | 349° |
| 2026-05-06 16:14 | -20.35501 | -62.83724 | 36013 ft | 457 kts | 349° |
| 2026-05-06 16:14 | -20.29246 | -62.84937 | 36014 ft | 457 kts | 349° |
| 2026-05-06 16:15 | -20.22992 | -62.86148 | 36014 ft | 457 kts | 349° |
| 2026-05-06 16:15 | -20.16727 | -62.87360 | 36014 ft | 457 kts | 349° |
| 2026-05-06 16:16 | -20.10475 | -62.88557 | 36014 ft | 457 kts | 349° |
| 2026-05-06 16:16 | -20.04221 | -62.89768 | 36014 ft | 457 kts | 349° |
| 2026-05-06 16:17 | -19.97971 | -62.90980 | 36013 ft | 457 kts | 349° |
| 2026-05-06 16:17 | -19.91751 | -62.92181 | 36013 ft | 457 kts | 349° |
| 2026-05-06 16:18 | -19.85498 | -62.93380 | 36012 ft | 457 kts | 349° |
| 2026-05-06 16:18 | -19.79245 | -62.94584 | 36012 ft | 457 kts | 349° |
| 2026-05-06 16:19 | -19.74042 | -62.95582 | 36012 ft | 457 kts | 349° |
| 2026-05-06 16:19 | -19.67788 | -62.96788 | 36008 ft | 457 kts | 349° |
| 2026-05-06 16:20 | -19.61522 | -62.97987 | 35910 ft | 459 kts | 349° |
| 2026-05-06 16:20 | -19.58374 | -62.98588 | 35544 ft | 460 kts | 349° |
| 2026-05-06 16:20 | -19.55223 | -62.99190 | 35000 ft | 459 kts | 349° |
| 2026-05-06 16:21 | -19.52072 | -62.99795 | 34439 ft | 460 kts | 349° |
| 2026-05-06 16:21 | -19.48926 | -63.00398 | 33896 ft | 461 kts | 349° |
| 2026-05-06 16:21 | -19.45763 | -63.01002 | 33344 ft | 462 kts | 349° |
| 2026-05-06 16:21 | -19.42592 | -63.01608 | 32793 ft | 463 kts | 349° |
| 2026-05-06 16:22 | -19.39424 | -63.02214 | 32244 ft | 464 kts | 349° |
| 2026-05-06 16:22 | -19.36238 | -63.02825 | 31692 ft | 465 kts | 349° |
| 2026-05-06 16:22 | -19.33043 | -63.03434 | 31135 ft | 466 kts | 349° |
| 2026-05-06 16:22 | -19.29842 | -63.04046 | 30585 ft | 468 kts | 349° |
| 2026-05-06 16:23 | -19.26644 | -63.04658 | 30041 ft | 469 kts | 349° |
| 2026-05-06 16:23 | -19.23470 | -63.05264 | 29494 ft | 470 kts | 349° |
| 2026-05-06 16:23 | -19.20246 | -63.05880 | 28942 ft | 471 kts | 349° |
| 2026-05-06 16:23 | -19.17026 | -63.06499 | 28391 ft | 472 kts | 349° |
| 2026-05-06 16:24 | -19.13787 | -63.07119 | 27839 ft | 473 kts | 349° |
| 2026-05-06 16:24 | -19.10552 | -63.07738 | 27289 ft | 474 kts | 349° |
| 2026-05-06 16:24 | -19.07299 | -63.08358 | 26736 ft | 475 kts | 349° |
| 2026-05-06 16:24 | -19.04039 | -63.08978 | 26190 ft | 476 kts | 349° |
| 2026-05-06 16:25 | -19.00781 | -63.09594 | 25629 ft | 477 kts | 349° |
| 2026-05-06 16:25 | -18.97490 | -63.10095 | 25081 ft | 478 kts | 355° |
| 2026-05-06 16:25 | -18.94160 | -63.10080 | 24531 ft | 479 kts | 5° |
| 2026-05-06 16:25 | -18.90839 | -63.09682 | 23978 ft | 480 kts | 6° |
| 2026-05-06 16:26 | -18.87541 | -63.09276 | 23399 ft | 477 kts | 6° |
| 2026-05-06 16:26 | -18.84257 | -63.08881 | 22768 ft | 472 kts | 6° |
| 2026-05-06 16:26 | -18.81003 | -63.08499 | 22147 ft | 468 kts | 6° |
| 2026-05-06 16:26 | -18.77789 | -63.08125 | 21518 ft | 464 kts | 6° |
| 2026-05-06 16:27 | -18.74594 | -63.07754 | 20892 ft | 459 kts | 6° |
| 2026-05-06 16:27 | -18.71429 | -63.07381 | 20266 ft | 455 kts | 6° |
| 2026-05-06 16:27 | -18.68292 | -63.07008 | 19640 ft | 451 kts | 6° |
| 2026-05-06 16:27 | -18.65195 | -63.06639 | 19013 ft | 447 kts | 6° |
| 2026-05-06 16:28 | -18.62156 | -63.06276 | 18402 ft | 443 kts | 6° |
| 2026-05-06 16:28 | -18.59064 | -63.05907 | 17759 ft | 439 kts | 6° |
| 2026-05-06 16:28 | -18.56090 | -63.05555 | 17149 ft | 435 kts | 6° |
| 2026-05-06 16:28 | -18.53093 | -63.05199 | 16518 ft | 431 kts | 6° |
| 2026-05-06 16:29 | -18.50129 | -63.04846 | 15891 ft | 427 kts | 6° |
| 2026-05-06 16:29 | -18.47184 | -63.04495 | 15265 ft | 423 kts | 6° |
| 2026-05-06 16:29 | -18.44282 | -63.04148 | 14645 ft | 418 kts | 6° |
| 2026-05-06 16:29 | -18.41422 | -63.03808 | 14010 ft | 404 kts | 6° |
| 2026-05-06 16:30 | -18.38694 | -63.03485 | 13377 ft | 385 kts | 6° |
| 2026-05-06 16:30 | -18.36959 | -63.03279 | 12972 ft | 374 kts | 6° |
| 2026-05-06 16:30 | -18.33597 | -63.02879 | 12131 ft | 354 kts | 6° |
| 2026-05-06 16:30 | -18.31191 | -63.02595 | 11506 ft | 342 kts | 6° |
| 2026-05-06 16:31 | -18.28859 | -63.02323 | 10881 ft | 332 kts | 6° |
| 2026-05-06 16:31 | -18.26595 | -63.02061 | 10353 ft | 320 kts | 6° |
| 2026-05-06 16:31 | -18.24451 | -63.01811 | 10195 ft | 298 kts | 6° |
| 2026-05-06 16:31 | -18.22460 | -63.01577 | 10203 ft | 283 kts | 6° |
| 2026-05-06 16:32 | -18.20509 | -63.01349 | 10210 ft | 281 kts | 6° |
| 2026-05-06 16:32 | -18.18565 | -63.01123 | 10176 ft | 281 kts | 6° |
| 2026-05-06 16:32 | -18.16622 | -63.00896 | 10022 ft | 280 kts | 6° |
| 2026-05-06 16:32 | -18.14712 | -63.00671 | 9862 ft | 279 kts | 6° |
| 2026-05-06 16:33 | -18.12748 | -63.00438 | 9504 ft | 281 kts | 6° |
| 2026-05-06 16:33 | -18.10851 | -63.00213 | 9038 ft | 276 kts | 6° |
| 2026-05-06 16:33 | -18.08924 | -62.99985 | 8541 ft | 273 kts | 6° |
| 2026-05-06 16:34 | -18.05199 | -62.99545 | 7609 ft | 269 kts | 6° |
| 2026-05-06 16:34 | -18.03348 | -62.99327 | 7129 ft | 268 kts | 6° |
| 2026-05-06 16:34 | -18.01506 | -62.99108 | 6662 ft | 264 kts | 6° |
| 2026-05-06 16:34 | -17.99703 | -62.98891 | 6174 ft | 257 kts | 6° |
| 2026-05-06 16:35 | -17.97937 | -62.98678 | 5702 ft | 257 kts | 6° |
| 2026-05-06 16:35 | -17.96137 | -62.98464 | 5222 ft | 263 kts | 6° |
| 2026-05-06 16:35 | -17.94329 | -62.98252 | 4993 ft | 257 kts | 6° |
| 2026-05-06 16:35 | -17.92592 | -62.98050 | 4954 ft | 248 kts | 6° |
| 2026-05-06 16:36 | -17.90873 | -62.97851 | 4873 ft | 248 kts | 6° |
| 2026-05-06 16:36 | -17.89158 | -62.97745 | 4745 ft | 246 kts | 355° |
| 2026-05-06 16:36 | -17.87502 | -62.98139 | 4613 ft | 245 kts | 337° |
| 2026-05-06 16:36 | -17.86436 | -62.98751 | 4527 ft | 244 kts | 324° |
| 2026-05-06 16:37 | -17.85020 | -62.99727 | 4435 ft | 243 kts | 327° |
| 2026-05-06 16:37 | -17.83580 | -63.00672 | 4455 ft | 244 kts | 327° |
| 2026-05-06 16:37 | -17.82145 | -63.01632 | 4460 ft | 244 kts | 327° |
| 2026-05-06 16:37 | -17.80712 | -63.02598 | 4456 ft | 244 kts | 327° |
| 2026-05-06 16:38 | -17.79286 | -63.03561 | 4298 ft | 242 kts | 327° |
| 2026-05-06 16:38 | -17.77872 | -63.04514 | 3994 ft | 241 kts | 327° |
| 2026-05-06 16:38 | -17.76467 | -63.05461 | 3712 ft | 241 kts | 327° |
| 2026-05-06 16:38 | -17.75078 | -63.06397 | 3385 ft | 237 kts | 327° |
| 2026-05-06 16:39 | -17.73726 | -63.07307 | 3086 ft | 224 kts | 327° |
| 2026-05-06 16:39 | -17.72444 | -63.08170 | 2783 ft | 214 kts | 327° |
| 2026-05-06 16:39 | -17.71220 | -63.08995 | 2507 ft | 206 kts | 327° |
| 2026-05-06 16:39 | -17.70036 | -63.09792 | 2241 ft | 198 kts | 327° |
| 2026-05-06 16:40 | -17.68924 | -63.10541 | 2000 ft | 184 kts | 327° |
| 2026-05-06 16:40 | -17.67920 | -63.11217 | 1789 ft | 167 kts | 327° |
| 2026-05-06 16:40 | -17.66992 | -63.11841 | 1551 ft | 152 kts | 327° |
| 2026-05-06 16:40 | -17.66117 | -63.12432 | 1339 ft | 147 kts | 327° |
| 2026-05-06 16:41 | -17.65277 | -63.13005 | 1256 ft | 135 kts | 326° |
| 2026-05-06 16:41 | -17.64569 | -63.13486 | 1233 ft | 98 kts | 328° |
| 2026-05-06 16:41 | -17.64154 | -63.13763 | 1229 ft | 61 kts | 327° |
| 2026-05-06 16:41 | -17.63935 | -63.13907 | 1228 ft | 22 kts | 330° |
| 2026-05-06 16:42 | -17.63883 | -63.13980 | 1228 ft | 8 kts | 223° |
| 2026-05-06 16:42 | -17.63903 | -63.13999 | 1228 ft | 3 kts | 226° |
| 2026-05-06 16:42 | -17.63908 | -63.14006 | 1228 ft | 0 kts | 233° |
| 2026-05-06 16:43 | -17.63940 | -63.14057 | 1230 ft | 23 kts | 236° |
| 2026-05-06 16:43 | -17.64013 | -63.14084 | 1230 ft | 9 kts | 144° |
| 2026-05-06 16:43 | -17.64167 | -63.13992 | 1230 ft | 41 kts | 148° |
| 2026-05-06 16:43 | -17.64322 | -63.13886 | 1231 ft | 21 kts | 146° |
| 2026-05-06 16:44 | -17.64413 | -63.13881 | 1231 ft | 14 kts | 231° |
| 2026-05-06 16:44 | -17.64458 | -63.13969 | 1231 ft | 14 kts | 242° |
| 2026-05-06 16:44 | -17.64529 | -63.14030 | 1231 ft | 13 kts | 181° |
| 2026-05-06 16:44 | -17.64601 | -63.13985 | 1231 ft | 12 kts | 147° |
| 2026-05-06 16:45 | -17.64646 | -63.13972 | 1231 ft | 3 kts | 235° |
| 2026-05-06 16:45 | -17.64659 | -63.13994 | 1231 ft | 5 kts | 238° |
| 2026-05-06 16:45 | -17.64676 | -63.14021 | 1231 ft | 4 kts | 235° |
| 2026-05-06 16:45 | -17.64686 | -63.14036 | 1231 ft | 0 kts | 235° |